Time;durP1;ratioP1;P1;durP2;ratioP2;P2;SDS_P1;SDS_P2;PMS_P1;PMS_P2;Temp;Humidity;BMP_temperature;BMP_pressure;BME280_temperature;BME280_humidity;BME280_pressure;Samples;Min_cycle;Max_cycle;Signal;HPM_P1;HPM_P2
2021/04/30 00:00:56;;;;;;;8.90;4.85;;;8.80;75.70;;;;;;5030655;28;20042;-81
2021/04/30 00:03:22;;;;;;;6.85;4.35;;;8.80;75.70;;;;;;5039104;28;20049;-80
2021/04/30 00:05:48;;;;;;;8.48;5.00;;;8.80;75.10;;;;;;5043631;28;20045;-79
2021/04/30 00:08:14;;;;;;;11.07;4.72;;;8.90;75.20;;;;;;5038234;28;20026;-81
2021/04/30 00:10:40;;;;;;;8.95;5.07;;;8.90;74.60;;;;;;5039502;28;20052;-81
2021/04/30 00:13:07;;;;;;;8.60;5.55;;;8.90;74.20;;;;;;5040912;28;20021;-81
2021/04/30 00:15:33;;;;;;;8.82;5.40;;;8.90;73.40;;;;;;5037163;28;20037;-81
2021/04/30 00:18:04;;;;;;;9.38;5.97;;;8.90;74.60;;;;;;5037484;28;20589;-81
2021/04/30 00:20:32;;;;;;;10.02;5.63;;;8.90;72.60;;;;;;5037231;28;20033;-81
2021/04/30 00:22:58;;;;;;;8.27;5.10;;;8.90;72.20;;;;;;5031061;28;20049;-80
2021/04/30 00:25:24;;;;;;;8.73;5.25;;;8.90;71.70;;;;;;5035941;28;20045;-80
2021/04/30 00:27:49;;;;;;;15.85;5.65;;;8.80;71.60;;;;;;5035219;28;20556;-80
2021/04/30 00:30:15;;;;;;;8.45;5.60;;;8.80;72.00;;;;;;5030016;28;20045;-80
2021/04/30 00:32:41;;;;;;;14.70;5.43;;;8.80;71.90;;;;;;5034527;28;20105;-80
2021/04/30 00:35:07;;;;;;;10.70;5.55;;;8.80;71.60;;;;;;5031199;28;20037;-80
2021/04/30 00:37:32;;;;;;;9.63;5.05;;;8.80;72.80;;;;;;5034960;28;20055;-81
2021/04/30 00:39:58;;;;;;;11.50;5.53;;;8.90;73.10;;;;;;5033674;28;20045;-80
2021/04/30 00:42:25;;;;;;;7.90;5.82;;;8.80;71.50;;;;;;5040627;28;20041;-80
2021/04/30 00:44:50;;;;;;;9.73;5.63;;;8.80;72.70;;;;;;5036183;28;20097;-81
2021/04/30 00:47:26;;;;;;;9.30;5.55;;;8.80;74.10;;;;;;5039380;28;20030;-81
2021/04/30 00:49:52;;;;;;;9.95;5.53;;;8.80;73.10;;;;;;5038064;28;20074;-82
2021/04/30 00:52:17;;;;;;;9.02;5.90;;;8.80;73.60;;;;;;5032652;28;20040;-79
2021/04/30 00:54:43;;;;;;;8.57;5.40;;;8.80;72.40;;;;;;5052414;28;20101;-80
2021/04/30 00:57:11;;;;;;;8.60;5.68;;;8.80;73.00;;;;;;5038720;28;20101;-80
2021/04/30 00:59:37;;;;;;;11.32;5.85;;;8.80;72.30;;;;;;5032638;28;20041;-80
2021/04/30 01:02:03;;;;;;;8.93;5.65;;;8.80;71.50;;;;;;5037845;28;20103;-80
2021/04/30 01:04:28;;;;;;;10.18;5.90;;;8.80;71.70;;;;;;5036627;28;20061;-81
2021/04/30 01:06:54;;;;;;;8.32;5.55;;;8.70;71.50;;;;;;5034741;28;20034;-80
2021/04/30 01:09:19;;;;;;;9.13;5.50;;;8.70;71.90;;;;;;5040451;28;20045;-80
2021/04/30 01:11:45;;;;;;;9.50;5.90;;;8.70;71.80;;;;;;5042210;28;20172;-80
2021/04/30 01:14:10;;;;;;;10.23;5.50;;;8.70;73.40;;;;;;5034897;28;20041;-80
2021/04/30 01:16:36;;;;;;;9.95;5.90;;;8.60;72.30;;;;;;5038688;28;20045;-79
2021/04/30 01:19:02;;;;;;;7.68;5.45;;;8.60;72.90;;;;;;5039799;28;20045;-81
2021/04/30 01:21:27;;;;;;;11.48;6.43;;;8.60;71.70;;;;;;5034165;28;20040;-80
2021/04/30 01:23:54;;;;;;;8.27;5.40;;;8.60;71.50;;;;;;5040785;28;20470;-81
2021/04/30 01:26:20;;;;;;;12.57;5.90;;;8.60;72.40;;;;;;5041342;28;20037;-81
2021/04/30 01:28:47;;;;;;;10.73;5.85;;;8.60;72.60;;;;;;5036345;28;20046;-81
2021/04/30 01:31:14;;;;;;;16.52;6.82;;;8.60;70.40;;;;;;5037784;28;20104;-80
2021/04/30 01:33:39;;;;;;;9.10;6.13;;;8.60;70.00;;;;;;5042581;28;20060;-81
2021/04/30 01:36:06;;;;;;;11.13;6.38;;;8.60;70.40;;;;;;5038715;28;20034;-81
2021/04/30 01:38:31;;;;;;;15.70;5.57;;;8.60;70.50;;;;;;5038416;28;20037;-80
2021/04/30 01:40:57;;;;;;;10.60;5.75;;;8.60;70.40;;;;;;5040559;28;20023;-82
2021/04/30 01:43:25;;;;;;;10.00;5.80;;;8.60;70.70;;;;;;5038725;28;20367;-82
2021/04/30 01:45:54;;;;;;;10.50;6.85;;;8.60;69.60;;;;;;5030265;28;20033;-79
2021/04/30 01:48:31;;;;;;;12.10;6.60;;;8.60;70.10;;;;;;5031537;28;20036;-79
2021/04/30 01:50:59;;;;;;;11.32;6.78;;;8.60;69.80;;;;;;5034852;28;20030;-78
2021/04/30 01:53:30;;;;;;;12.20;6.95;;;8.50;70.00;;;;;;5031993;28;20034;-77
2021/04/30 01:55:57;;;;;;;13.38;6.32;;;8.60;69.80;;;;;;5047614;28;20371;-77
2021/04/30 01:58:23;;;;;;;11.85;7.10;;;8.50;70.40;;;;;;5034070;28;20064;-79
2021/04/30 02:00:50;;;;;;;10.35;6.82;;;8.50;69.70;;;;;;5038636;28;20095;-80
2021/04/30 02:03:16;;;;;;;15.60;7.80;;;8.50;70.00;;;;;;5033625;28;20164;-79
2021/04/30 02:05:42;;;;;;;11.57;6.55;;;8.50;69.30;;;;;;5033128;28;20054;-79
2021/04/30 02:08:10;;;;;;;10.13;6.55;;;8.50;69.30;;;;;;5036947;28;20124;-78
2021/04/30 02:10:37;;;;;;;17.17;7.57;;;8.50;69.10;;;;;;5031021;28;20431;-79
2021/04/30 02:13:03;;;;;;;12.63;7.40;;;8.50;69.60;;;;;;5031791;28;20041;-80
2021/04/30 02:15:31;;;;;;;12.43;7.18;;;8.40;69.10;;;;;;5031445;28;20583;-80
2021/04/30 02:17:57;;;;;;;12.98;7.53;;;8.50;69.60;;;;;;5036526;28;20053;-79
2021/04/30 02:20:23;;;;;;;16.15;8.73;;;8.50;69.40;;;;;;5036754;28;20103;-78
2021/04/30 02:22:50;;;;;;;16.23;8.30;;;8.50;70.60;;;;;;5038210;28;20034;-79
2021/04/30 02:25:18;;;;;;;12.05;7.65;;;8.50;71.90;;;;;;5044143;28;20029;-78
2021/04/30 02:27:45;;;;;;;12.23;7.85;;;8.40;72.20;;;;;;5042283;28;20512;-79
2021/04/30 02:30:13;;;;;;;13.25;7.65;;;8.40;73.10;;;;;;5038545;28;20049;-79
2021/04/30 02:32:39;;;;;;;16.80;8.48;;;8.40;78.60;;;;;;5037537;28;20065;-78
2021/04/30 02:35:12;;;;;;;13.30;7.93;;;8.40;80.40;;;;;;5037091;28;20034;-79
2021/04/30 02:37:38;;;;;;;13.10;7.57;;;8.30;81.30;;;;;;5039649;28;20037;-79
2021/04/30 02:40:05;;;;;;;13.88;8.63;;;8.20;83.00;;;;;;5036637;28;20033;-78
2021/04/30 02:42:31;;;;;;;12.23;7.95;;;8.20;85.20;;;;;;5040628;28;20046;-78
2021/04/30 02:45:00;;;;;;;15.25;7.88;;;8.20;86.20;;;;;;5038253;28;20048;-78
2021/04/30 02:47:30;;;;;;;14.55;8.45;;;8.10;84.10;;;;;;5034277;28;20029;-79
2021/04/30 02:49:56;;;;;;;16.88;9.02;;;8.00;81.80;;;;;;5034126;28;20310;-79
2021/04/30 02:52:22;;;;;;;16.88;9.57;;;8.00;82.40;;;;;;5036481;28;20105;-79
2021/04/30 02:54:47;;;;;;;16.85;10.38;;;8.00;83.80;;;;;;5032542;28;20053;-79
2021/04/30 02:57:14;;;;;;;16.80;8.75;;;7.90;84.50;;;;;;5034815;28;20049;-79
2021/04/30 02:59:40;;;;;;;16.60;8.82;;;7.90;81.20;;;;;;5036072;28;20104;-78
2021/04/30 03:02:06;;;;;;;16.42;9.18;;;7.80;86.20;;;;;;5034929;28;20037;-78
2021/04/30 03:04:31;;;;;;;15.27;9.02;;;7.80;89.30;;;;;;5037236;28;20053;-80
2021/04/30 03:06:57;;;;;;;16.00;9.52;;;7.70;87.50;;;;;;5036433;28;20064;-78
2021/04/30 03:09:23;;;;;;;17.90;10.05;;;7.70;88.80;;;;;;5039174;28;21749;-78
2021/04/30 03:11:48;;;;;;;13.38;8.75;;;7.70;90.70;;;;;;5043052;28;20072;-78
2021/04/30 03:14:14;;;;;;;17.25;10.02;;;7.70;88.60;;;;;;5043045;28;20147;-79
2021/04/30 03:16:39;;;;;;;16.23;8.77;;;7.60;90.10;;;;;;5043903;28;20034;-80
2021/04/30 03:19:05;;;;;;;20.48;9.40;;;7.60;89.90;;;;;;5043888;28;20025;-78
2021/04/30 03:21:31;;;;;;;18.33;9.25;;;7.60;90.20;;;;;;5043626;28;20033;-78
2021/04/30 03:23:57;;;;;;;16.85;9.27;;;7.70;89.90;;;;;;5042747;28;20345;-78
2021/04/30 03:26:23;;;;;;;19.50;9.73;;;7.70;88.90;;;;;;5031411;28;20189;-79
2021/04/30 03:28:48;;;;;;;17.67;9.15;;;7.70;84.30;;;;;;5035091;28;20038;-78
2021/04/30 03:31:14;;;;;;;16.85;9.60;;;7.80;87.90;;;;;;5038647;28;20061;-79
2021/04/30 03:33:40;;;;;;;18.42;8.52;;;7.80;84.60;;;;;;5034019;28;20120;-79
2021/04/30 03:36:06;;;;;;;17.25;9.15;;;7.80;86.20;;;;;;5039249;28;20041;-78
2021/04/30 03:38:33;;;;;;;17.50;9.60;;;7.80;83.20;;;;;;5035632;28;20037;-79
2021/04/30 03:40:58;;;;;;;16.02;9.77;;;7.90;82.60;;;;;;5035008;28;20315;-78
2021/04/30 03:43:24;;;;;;;17.05;9.73;;;7.90;82.70;;;;;;5041464;28;20040;-80
2021/04/30 03:45:50;;;;;;;16.38;9.80;;;7.90;81.80;;;;;;5050135;28;20516;-79
2021/04/30 03:48:17;;;;;;;18.90;9.68;;;7.90;81.50;;;;;;5038177;28;20059;-79
2021/04/30 03:50:43;;;;;;;15.98;9.48;;;7.90;80.90;;;;;;5039816;28;20083;-78
2021/04/30 03:53:08;;;;;;;14.95;8.57;;;7.90;81.20;;;;;;5032620;28;20377;-79
2021/04/30 03:55:34;;;;;;;17.27;9.45;;;7.80;79.60;;;;;;5032367;28;20033;-80
2021/04/30 03:57:59;;;;;;;16.00;9.77;;;7.80;79.80;;;;;;5031649;28;20034;-78
2021/04/30 04:00:25;;;;;;;27.38;9.95;;;7.80;80.00;;;;;;5031696;28;20097;-80
2021/04/30 04:02:51;;;;;;;16.38;9.30;;;7.80;82.20;;;;;;5048256;28;20095;-80
2021/04/30 04:05:16;;;;;;;15.30;8.88;;;7.80;81.30;;;;;;5035526;28;20042;-78
2021/04/30 04:07:42;;;;;;;17.35;8.43;;;7.90;80.90;;;;;;5034252;28;20060;-80
2021/04/30 04:10:08;;;;;;;13.50;9.48;;;7.90;81.50;;;;;;5035514;28;20038;-78
2021/04/30 04:12:33;;;;;;;12.70;8.30;;;7.80;81.10;;;;;;5035271;28;20189;-79
2021/04/30 04:14:59;;;;;;;14.38;8.65;;;7.80;81.70;;;;;;5031137;28;20053;-79
2021/04/30 04:17:25;;;;;;;14.05;8.55;;;7.90;81.40;;;;;;5036277;28;20041;-80
2021/04/30 04:19:50;;;;;;;13.55;8.60;;;7.90;81.20;;;;;;5040009;28;20368;-78
2021/04/30 04:22:17;;;;;;;15.45;8.30;;;7.90;79.00;;;;;;5038942;28;20072;-79
2021/04/30 04:24:44;;;;;;;17.05;10.10;;;7.90;79.40;;;;;;5043005;28;20041;-77
2021/04/30 04:27:10;;;;;;;16.13;9.18;;;8.00;80.20;;;;;;5061700;28;20280;-78
2021/04/30 04:29:36;;;;;;;17.42;8.52;;;8.00;79.20;;;;;;5045874;28;20025;-78
2021/04/30 04:32:02;;;;;;;17.90;8.77;;;8.00;79.60;;;;;;5041725;28;20058;-76
2021/04/30 04:34:28;;;;;;;16.20;9.65;;;8.00;79.50;;;;;;5045866;28;20144;-77
2021/04/30 04:36:53;;;;;;;15.75;9.52;;;8.00;79.50;;;;;;5043710;28;20037;-77
2021/04/30 04:39:19;;;;;;;19.92;9.57;;;8.00;79.90;;;;;;5031687;28;20036;-78
2021/04/30 04:41:45;;;;;;;13.93;9.02;;;8.10;78.40;;;;;;5038501;28;20601;-79
2021/04/30 04:44:12;;;;;;;19.40;9.85;;;8.00;80.00;;;;;;5036359;28;20064;-80
2021/04/30 04:46:37;;;;;;;18.48;9.82;;;8.10;80.30;;;;;;5031987;28;20029;-79
2021/04/30 04:49:03;;;;;;;17.48;9.32;;;8.10;80.10;;;;;;5037291;28;20044;-80
2021/04/30 04:51:28;;;;;;;17.88;10.40;;;8.20;79.50;;;;;;5043776;28;20017;-76
2021/04/30 04:53:54;;;;;;;17.40;10.35;;;8.10;79.00;;;;;;5041901;28;20017;-77
2021/04/30 04:56:25;;;;;;;15.77;9.90;;;8.20;79.40;;;;;;5049317;28;20136;-78
2021/04/30 04:58:51;;;;;;;15.30;10.13;;;8.20;78.20;;;;;;5041789;28;20033;-77
2021/04/30 05:01:16;;;;;;;19.73;10.10;;;8.20;78.30;;;;;;5044432;28;20347;-77
2021/04/30 05:03:42;;;;;;;17.13;9.55;;;8.30;78.10;;;;;;5044714;28;20045;-78
2021/04/30 05:06:07;;;;;;;17.25;10.23;;;8.30;77.60;;;;;;5041774;28;20041;-81
2021/04/30 05:08:33;;;;;;;20.17;10.32;;;8.30;78.30;;;;;;5045347;28;20049;-78
2021/04/30 05:10:59;;;;;;;20.02;10.88;;;8.40;79.20;;;;;;5041120;28;20033;-77
2021/04/30 05:13:24;;;;;;;17.50;10.85;;;8.40;78.30;;;;;;5043768;28;20014;-79
2021/04/30 05:15:50;;;;;;;20.92;10.05;;;8.40;77.90;;;;;;5044985;28;20036;-77
2021/04/30 05:18:16;;;;;;;16.52;10.07;;;8.30;77.80;;;;;;5043986;28;20091;-77
2021/04/30 05:20:41;;;;;;;18.70;11.20;;;8.30;77.50;;;;;;5043906;28;20013;-77
2021/04/30 05:23:07;;;;;;;19.30;10.07;;;8.40;77.40;;;;;;5045429;28;20093;-78
2021/04/30 05:25:32;;;;;;;20.20;11.32;;;8.40;76.70;;;;;;5042590;28;20049;-78
2021/04/30 05:27:59;;;;;;;22.85;10.57;;;8.40;77.80;;;;;;5039001;28;20046;-78
2021/04/30 05:30:25;;;;;;;19.10;10.27;;;8.50;76.60;;;;;;5040251;28;20042;-78
2021/04/30 05:32:50;;;;;;;21.45;10.82;;;8.40;74.60;;;;;;5037732;28;20309;-79
2021/04/30 05:35:16;;;;;;;18.60;11.10;;;8.60;74.60;;;;;;5041210;28;20075;-78
2021/04/30 05:37:42;;;;;;;19.20;11.30;;;8.60;74.30;;;;;;5045644;28;20046;-78
2021/04/30 05:40:09;;;;;;;22.63;10.93;;;8.60;74.00;;;;;;5043069;28;20044;-79
2021/04/30 05:42:34;;;;;;;17.90;10.80;;;8.60;73.90;;;;;;5038350;28;20037;-79
2021/04/30 05:45:00;;;;;;;26.35;11.35;;;8.80;73.70;;;;;;5039309;28;20052;-79
2021/04/30 05:47:26;;;;;;;20.80;11.27;;;8.70;72.80;;;;;;5038422;28;20041;-80
2021/04/30 05:49:52;;;;;;;23.85;10.68;;;8.80;72.10;;;;;;5031448;28;20034;-79
2021/04/30 05:52:17;;;;;;;19.30;11.02;;;8.80;72.20;;;;;;5033577;28;20712;-79
2021/04/30 05:54:43;;;;;;;23.25;10.68;;;8.80;72.10;;;;;;5036419;28;20029;-79
2021/04/30 05:57:09;;;;;;;21.77;10.95;;;8.80;71.80;;;;;;5041120;28;20102;-78
2021/04/30 05:59:34;;;;;;;23.05;12.32;;;8.90;72.00;;;;;;5021679;28;20072;-79
2021/04/30 06:02:00;;;;;;;19.85;11.10;;;8.80;72.10;;;;;;5031482;28;20045;-79
2021/04/30 06:04:26;;;;;;;17.13;10.18;;;8.90;71.40;;;;;;5035838;28;22306;-78
2021/04/30 06:06:53;;;;;;;21.10;10.77;;;8.90;71.60;;;;;;5009357;28;20030;-78
2021/04/30 06:09:18;;;;;;;20.52;11.05;;;8.80;72.00;;;;;;5035530;28;20053;-81
2021/04/30 06:11:44;;;;;;;19.45;11.07;;;8.90;72.50;;;;;;5053328;28;20033;-80
2021/04/30 06:14:11;;;;;;;17.52;10.27;;;9.10;72.90;;;;;;5035762;28;20038;-80
2021/04/30 06:16:37;;;;;;;19.30;10.52;;;9.10;73.50;;;;;;5039105;28;20040;-79
2021/04/30 06:19:03;;;;;;;18.30;10.40;;;9.10;72.20;;;;;;5042452;28;20048;-79
2021/04/30 06:21:29;;;;;;;16.35;9.77;;;9.00;70.10;;;;;;5040644;28;20042;-78
2021/04/30 06:23:54;;;;;;;15.75;10.02;;;8.90;70.10;;;;;;5042467;28;20037;-77
2021/04/30 06:26:20;;;;;;;16.50;9.60;;;9.00;69.00;;;;;;5043928;28;20053;-79
2021/04/30 06:28:46;;;;;;;17.40;9.45;;;9.10;69.00;;;;;;5040969;28;20060;-79
2021/04/30 06:31:11;;;;;;;15.77;10.25;;;9.00;67.90;;;;;;5038019;28;20112;-78
2021/04/30 06:33:37;;;;;;;16.75;9.18;;;9.10;68.20;;;;;;5037766;28;20097;-79
2021/04/30 06:36:03;;;;;;;23.55;9.70;;;9.10;68.10;;;;;;5056713;28;20052;-79
2021/04/30 06:38:28;;;;;;;18.08;9.77;;;9.10;67.80;;;;;;5035906;28;20088;-78
2021/04/30 06:40:54;;;;;;;15.60;9.52;;;9.00;68.70;;;;;;5035587;28;20512;-78
2021/04/30 06:43:19;;;;;;;22.42;9.90;;;9.00;68.20;;;;;;5034641;28;20045;-79
2021/04/30 06:45:45;;;;;;;17.42;9.85;;;8.90;68.00;;;;;;5032373;28;20033;-78
2021/04/30 06:48:11;;;;;;;16.08;9.23;;;8.90;68.30;;;;;;5029329;28;20053;-79
2021/04/30 06:50:36;;;;;;;19.08;9.75;;;9.00;68.70;;;;;;5035988;28;20148;-79
2021/04/30 06:53:02;;;;;;;19.77;9.85;;;9.00;68.00;;;;;;5033525;28;20038;-80
2021/04/30 06:55:27;;;;;;;15.50;9.23;;;9.10;68.40;;;;;;5039504;28;20064;-77
2021/04/30 06:57:53;;;;;;;19.63;9.30;;;9.00;68.40;;;;;;5035917;28;20090;-78
2021/04/30 07:00:19;;;;;;;17.30;9.68;;;8.90;69.10;;;;;;5034244;28;20030;-81
2021/04/30 07:02:45;;;;;;;19.67;9.23;;;9.00;69.40;;;;;;5026906;28;20038;-78
2021/04/30 07:05:11;;;;;;;20.70;9.77;;;8.80;68.20;;;;;;5024599;28;20406;-77
2021/04/30 07:07:37;;;;;;;15.80;9.60;;;8.80;68.20;;;;;;5029709;28;20584;-80
2021/04/30 07:10:04;;;;;;;19.50;8.77;;;8.80;68.60;;;;;;5032832;28;20072;-79
2021/04/30 07:12:30;;;;;;;17.23;9.05;;;8.70;68.20;;;;;;5035314;28;20152;-78
2021/04/30 07:14:56;;;;;;;18.85;9.82;;;8.60;67.70;;;;;;5035480;28;20037;-78
2021/04/30 07:17:22;;;;;;;18.55;9.52;;;8.70;68.20;;;;;;5035116;28;20056;-80
2021/04/30 07:19:47;;;;;;;18.15;9.73;;;8.80;68.60;;;;;;5032724;28;20045;-80
2021/04/30 07:22:14;;;;;;;21.13;10.50;;;8.90;68.60;;;;;;5036309;28;20582;-80
2021/04/30 07:24:40;;;;;;;18.15;9.45;;;8.90;68.00;;;;;;5034845;28;20100;-78
2021/04/30 07:27:07;;;;;;;15.27;9.18;;;8.90;68.40;;;;;;5038058;28;20038;-78
2021/04/30 07:29:33;;;;;;;16.17;9.05;;;9.00;67.90;;;;;;5036808;28;20044;-79
2021/04/30 07:32:00;;;;;;;16.25;9.77;;;9.10;68.00;;;;;;5037515;28;20097;-80
2021/04/30 07:34:25;;;;;;;21.10;9.65;;;9.10;67.70;;;;;;5035408;28;20126;-80
2021/04/30 07:36:51;;;;;;;16.77;9.38;;;9.20;67.50;;;;;;5034179;28;20041;-78
2021/04/30 07:39:17;;;;;;;19.45;9.93;;;9.10;67.60;;;;;;5046269;28;20053;-80
2021/04/30 07:41:43;;;;;;;17.52;9.43;;;9.10;68.10;;;;;;5031975;28;20041;-78
2021/04/30 07:44:08;;;;;;;18.20;9.98;;;9.00;67.60;;;;;;5023818;28;20084;-81
2021/04/30 07:46:34;;;;;;;13.73;7.68;;;9.00;67.60;;;;;;5018888;28;20045;-79
2021/04/30 07:49:02;;;;;;;20.70;9.60;;;9.00;67.50;;;;;;5038236;28;20049;-79
2021/04/30 07:51:28;;;;;;;13.40;8.38;;;9.10;67.90;;;;;;5028141;28;20053;-79
2021/04/30 07:53:54;;;;;;;17.27;9.15;;;9.00;67.70;;;;;;5036763;28;20034;-80
2021/04/30 07:56:22;;;;;;;15.80;8.57;;;9.10;67.90;;;;;;5039693;28;20341;-80
2021/04/30 07:58:48;;;;;;;16.25;8.63;;;9.20;67.30;;;;;;5030939;28;20092;-78
2021/04/30 08:01:14;;;;;;;19.83;10.00;;;9.00;66.90;;;;;;5026153;28;20037;-83
2021/04/30 08:03:40;;;;;;;28.92;9.60;;;9.10;67.70;;;;;;5031412;28;20032;-79
2021/04/30 08:06:05;;;;;;;16.02;9.05;;;9.00;67.70;;;;;;5034182;28;20089;-79
2021/04/30 08:08:31;;;;;;;17.92;9.60;;;9.20;68.50;;;;;;5034689;28;20129;-77
2021/04/30 08:10:57;;;;;;;19.08;9.27;;;9.20;68.00;;;;;;5050239;28;20239;-78
2021/04/30 08:13:22;;;;;;;15.77;8.00;;;9.20;68.40;;;;;;5034999;28;20087;-80
2021/04/30 08:15:48;;;;;;;18.15;9.95;;;9.10;68.60;;;;;;5026720;28;20039;-81
2021/04/30 08:18:13;;;;;;;16.55;9.05;;;9.10;68.00;;;;;;5043576;28;20058;-80
2021/04/30 08:20:39;;;;;;;14.98;8.88;;;9.10;68.20;;;;;;5044234;28;20163;-81
2021/04/30 08:23:05;;;;;;;18.70;9.38;;;9.10;68.70;;;;;;5025934;28;20041;-80
2021/04/30 08:25:31;;;;;;;19.25;9.65;;;9.20;69.30;;;;;;5033745;28;20112;-81
2021/04/30 08:27:56;;;;;;;15.63;8.98;;;9.10;68.90;;;;;;5050619;28;20097;-79
2021/04/30 08:30:24;;;;;;;14.75;8.43;;;9.10;69.00;;;;;;5024641;28;20068;-79
2021/04/30 08:32:49;;;;;;;16.50;8.77;;;9.10;69.00;;;;;;5030927;28;20037;-80
2021/04/30 08:35:16;;;;;;;13.77;8.27;;;9.10;69.30;;;;;;5037282;28;20067;-78
2021/04/30 08:37:41;;;;;;;21.25;9.30;;;9.00;68.60;;;;;;5034524;28;20068;-77
2021/04/30 08:40:07;;;;;;;19.08;9.60;;;9.20;68.90;;;;;;5033694;28;20029;-78
2021/04/30 08:42:37;;;;;;;17.65;9.02;;;9.30;69.00;;;;;;5019982;28;20045;-77
2021/04/30 08:45:07;;;;;;;15.93;8.77;;;9.30;69.10;;;;;;5050497;28;20058;-80
2021/04/30 08:47:35;;;;;;;17.92;10.25;;;9.40;69.20;;;;;;5036507;28;20046;-80
2021/04/30 08:50:00;;;;;;;17.50;10.35;;;9.60;69.20;;;;;;5034264;28;20238;-78
2021/04/30 08:52:26;;;;;;;19.95;9.43;;;9.60;68.80;;;;;;5037347;28;20282;-79
2021/04/30 08:54:54;;;;;;;21.05;10.05;;;9.60;67.70;;;;;;5028922;28;20384;-79
2021/04/30 08:57:25;;;;;;;16.77;9.73;;;9.70;68.50;;;;;;5039125;28;20033;-78
2021/04/30 08:59:56;;;;;;;21.73;10.80;;;9.70;68.30;;;;;;5030420;28;20068;-79
2021/04/30 09:02:26;;;;;;;17.10;8.82;;;9.50;69.00;;;;;;5038473;28;20037;-78
2021/04/30 09:04:53;;;;;;;23.02;11.23;;;9.60;69.50;;;;;;5033308;28;20068;-79
2021/04/30 09:07:20;;;;;;;20.63;10.55;;;9.60;69.50;;;;;;5028015;28;20036;-78
2021/04/30 09:10:02;;;;;;;29.83;10.93;;;9.70;69.60;;;;;;5032355;28;20045;-80
2021/04/30 09:12:29;;;;;;;20.42;10.20;;;9.50;69.50;;;;;;5029243;28;20041;-79
2021/04/30 09:14:56;;;;;;;26.70;10.52;;;9.60;69.60;;;;;;5034233;28;20114;-79
2021/04/30 09:17:22;;;;;;;19.17;9.95;;;9.50;69.30;;;;;;5027780;28;20040;-80
2021/04/30 09:19:59;;;;;;;21.65;11.18;;;9.50;71.00;;;;;;5035636;28;20045;-79
2021/04/30 09:22:35;;;;;;;19.70;10.23;;;9.20;72.40;;;;;;5036587;28;20033;-79
2021/04/30 09:25:05;;;;;;;22.92;11.13;;;9.20;73.40;;;;;;5031999;28;20254;-82
2021/04/30 09:27:43;;;;;;;24.80;11.27;;;9.40;74.10;;;;;;5038285;28;20045;-78
2021/04/30 09:30:32;;;;;;;26.85;12.32;;;9.50;74.20;;;;;;5037183;28;20087;-78
2021/04/30 09:33:09;;;;;;;20.90;11.95;;;9.20;72.80;;;;;;5026668;28;20068;-80
2021/04/30 09:36:08;;;;;;;27.60;10.30;;;9.30;73.90;;;;;;5023579;28;20197;-80
2021/04/30 09:38:34;;;;;;;20.40;10.85;;;9.40;73.40;;;;;;5003164;28;20037;-79
2021/04/30 09:41:00;;;;;;;31.83;11.13;;;9.40;73.60;;;;;;5035946;28;20121;-81
2021/04/30 09:43:26;;;;;;;20.30;11.88;;;9.60;73.80;;;;;;5031130;28;20099;-81
2021/04/30 09:45:51;;;;;;;19.48;11.07;;;9.10;73.40;;;;;;5032406;28;20148;-80
2021/04/30 09:48:17;;;;;;;20.15;11.52;;;9.20;74.00;;;;;;5044099;28;20052;-80
2021/04/30 09:50:44;;;;;;;19.02;11.48;;;9.10;74.50;;;;;;5036415;28;20041;-80
2021/04/30 09:53:12;;;;;;;23.35;11.40;;;9.20;75.00;;;;;;5037993;28;20587;-79
2021/04/30 09:55:41;;;;;;;24.45;13.02;;;9.30;74.90;;;;;;5032229;28;20139;-80
2021/04/30 09:58:21;;;;;;;21.08;12.18;;;9.20;74.70;;;;;;5037434;28;20068;-79
2021/04/30 10:00:48;;;;;;;25.23;12.57;;;9.30;75.30;;;;;;5034065;28;20240;-78
2021/04/30 10:03:35;;;;;;;19.45;12.20;;;9.40;75.00;;;;;;5027033;28;20042;-78
2021/04/30 10:06:03;;;;;;;25.98;11.95;;;9.30;75.30;;;;;;5028699;28;20041;-78
2021/04/30 10:08:30;;;;;;;22.75;12.40;;;9.40;75.20;;;;;;5028576;28;20026;-78
2021/04/30 10:10:56;;;;;;;22.98;12.30;;;9.40;75.60;;;;;;5029580;28;20029;-78
2021/04/30 10:13:22;;;;;;;24.85;12.50;;;9.40;75.20;;;;;;5025430;28;20053;-78
2021/04/30 10:15:47;;;;;;;23.70;13.13;;;9.50;75.40;;;;;;5022624;28;20118;-78
2021/04/30 10:18:16;;;;;;;21.35;12.43;;;9.50;76.80;;;;;;5024979;28;20025;-78
2021/04/30 10:20:42;;;;;;;28.58;14.15;;;9.40;76.50;;;;;;5032408;28;20056;-77
2021/04/30 10:23:14;;;;;;;26.95;15.10;;;9.30;77.70;;;;;;5038032;28;20046;-79
2021/04/30 10:25:42;;;;;;;24.92;14.73;;;9.20;78.80;;;;;;5031880;28;20045;-78
2021/04/30 10:28:09;;;;;;;21.67;12.45;;;9.10;79.60;;;;;;5037447;28;20081;-79
2021/04/30 10:30:40;;;;;;;25.77;13.20;;;9.20;80.30;;;;;;5033176;28;20052;-81
2021/04/30 10:33:24;;;;;;;27.85;15.15;;;9.10;82.20;;;;;;5034496;28;20089;-78
2021/04/30 10:35:57;;;;;;;31.83;15.43;;;9.10;84.20;;;;;;5027593;28;20041;-81
2021/04/30 10:38:27;;;;;;;29.30;16.15;;;9.10;87.50;;;;;;5028945;28;20041;-80
2021/04/30 10:41:14;;;;;;;24.95;15.00;;;9.00;91.60;;;;;;5021580;28;20042;-80
2021/04/30 10:43:40;;;;;;;27.15;15.57;;;8.80;90.80;;;;;;5037104;28;20065;-79
2021/04/30 10:46:20;;;;;;;34.08;16.75;;;8.70;90.80;;;;;;5050018;28;20029;-78
2021/04/30 10:49:15;;;;;;;26.33;15.82;;;8.80;91.90;;;;;;5028066;28;20056;-80
2021/04/30 10:51:41;;;;;;;31.95;16.77;;;8.50;91.20;;;;;;5032991;28;20037;-79
2021/04/30 10:54:26;;;;;;;33.30;19.15;;;8.50;92.50;;;;;;5031085;28;20514;-80
2021/04/30 10:57:08;;;;;;;32.20;16.73;;;8.40;93.30;;;;;;5033610;28;20033;-79
2021/04/30 10:59:38;;;;;;;32.17;18.73;;;8.40;94.00;;;;;;5027357;28;20041;-81
2021/04/30 11:02:31;;;;;;;32.75;18.63;;;8.20;95.80;;;;;;5041261;28;20018;-78
2021/04/30 11:05:06;;;;;;;32.15;16.77;;;8.20;98.30;;;;;;5025236;28;20045;-80
2021/04/30 11:07:46;;;;;;;35.83;18.27;;;8.00;99.40;;;;;;5030262;28;20068;-79
2021/04/30 11:10:21;;;;;;;34.53;16.85;;;8.00;99.90;;;;;;5035464;28;20030;-79
2021/04/30 11:13:06;;;;;;;36.60;16.73;;;8.00;99.90;;;;;;5032832;28;20033;-79
2021/04/30 11:15:44;;;;;;;32.95;17.23;;;7.70;99.90;;;;;;5029399;28;20045;-83
2021/04/30 11:18:11;;;;;;;35.10;18.05;;;7.50;99.90;;;;;;5037508;28;20018;-83
2021/04/30 11:20:39;;;;;;;36.60;18.90;;;7.50;99.90;;;;;;5040755;28;20096;-83
2021/04/30 11:23:17;;;;;;;38.83;20.88;;;7.50;99.90;;;;;;5033761;28;20048;-82
2021/04/30 11:25:57;;;;;;;35.00;18.35;;;7.50;99.90;;;;;;5029121;28;20527;-83
2021/04/30 11:28:23;;;;;;;41.88;21.02;;;7.40;99.90;;;;;;5048303;28;20044;-82
2021/04/30 11:31:09;;;;;;;39.45;19.70;;;7.40;99.90;;;;;;5033506;28;20056;-82
2021/04/30 11:33:38;;;;;;;33.85;19.48;;;7.30;99.90;;;;;;5037726;28;20049;-82
2021/04/30 11:36:05;;;;;;;33.45;18.40;;;7.30;99.90;;;;;;5033207;28;20054;-82
2021/04/30 11:38:39;;;;;;;37.85;19.90;;;7.20;99.90;;;;;;5035910;28;20053;-83
2021/04/30 11:41:12;;;;;;;32.90;19.73;;;7.20;99.90;;;;;;5036188;28;20064;-82
2021/04/30 11:43:44;;;;;;;36.13;19.30;;;7.20;99.90;;;;;;5032048;28;20037;-83
2021/04/30 11:46:10;;;;;;;33.70;18.88;;;7.20;99.90;;;;;;5036777;28;20118;-87
2021/04/30 11:48:41;;;;;;;35.88;18.45;;;7.20;99.90;;;;;;5042487;28;20247;-85
2021/04/30 11:51:10;;;;;;;37.05;19.30;;;7.30;99.90;;;;;;5038319;28;20048;-81
2021/04/30 11:53:39;;;;;;;32.08;16.88;;;7.30;99.90;;;;;;5036907;28;20037;-80
2021/04/30 11:56:06;;;;;;;31.95;17.33;;;7.30;99.90;;;;;;5041802;28;20034;-82
2021/04/30 11:58:35;;;;;;;34.22;18.77;;;7.20;99.90;;;;;;5042900;28;20052;-81
2021/04/30 12:01:02;;;;;;;33.90;17.52;;;7.20;99.90;;;;;;5046522;28;20060;-82
2021/04/30 12:03:27;;;;;;;28.85;17.42;;;7.00;99.90;;;;;;5042526;28;20052;-82
2021/04/30 12:05:54;;;;;;;32.15;17.05;;;7.10;99.90;;;;;;5040706;28;20030;-81
2021/04/30 12:08:19;;;;;;;31.33;16.13;;;7.00;99.90;;;;;;5043417;28;20041;-82
2021/04/30 12:10:45;;;;;;;30.90;16.15;;;7.00;99.90;;;;;;5041059;28;20042;-82
2021/04/30 12:13:20;;;;;;;30.35;14.98;;;6.80;99.90;;;;;;5041306;28;20029;-80
2021/04/30 12:15:46;;;;;;;32.35;15.98;;;6.70;99.90;;;;;;5042229;28;20273;-84
2021/04/30 12:18:12;;;;;;;34.55;16.25;;;6.90;99.90;;;;;;5041103;28;20037;-81
2021/04/30 12:20:40;;;;;;;27.95;15.32;;;7.00;99.90;;;;;;5040736;28;20022;-84
2021/04/30 12:23:08;;;;;;;26.05;15.65;;;6.90;99.90;;;;;;5041536;28;20034;-83
2021/04/30 12:25:44;;;;;;;29.88;15.48;;;6.90;99.90;;;;;;5054344;28;20062;-85
2021/04/30 12:28:30;;;;;;;32.88;16.27;;;6.90;99.90;;;;;;5034479;28;20129;-79
2021/04/30 12:31:06;;;;;;;28.92;14.52;;;6.90;99.90;;;;;;5037881;28;20055;-81
2021/04/30 12:33:36;;;;;;;31.85;17.58;;;6.80;99.90;;;;;;5041647;28;20063;-82
2021/04/30 12:36:05;;;;;;;36.75;17.58;;;6.90;99.90;;;;;;5040776;28;20218;-82
2021/04/30 12:38:32;;;;;;;27.23;16.58;;;7.00;99.90;;;;;;5043134;28;20034;-85
2021/04/30 12:41:18;;;;;;;30.55;17.17;;;7.10;99.90;;;;;;5042545;28;20056;-84
2021/04/30 12:43:47;;;;;;;35.75;16.70;;;7.10;99.90;;;;;;5043866;28;20090;-84
2021/04/30 12:46:22;;;;;;;36.00;18.30;;;6.90;99.90;;;;;;5040167;28;20037;-83